createdAt,value
2019-06-08T00:02:12.542Z,96599.77
2019-06-08T00:04:41.107Z,96606.85
2019-06-08T00:07:09.592Z,96601.48
2019-06-08T00:09:38.109Z,96611.30
2019-06-08T00:12:06.592Z,96607.75
2019-06-08T00:14:35.093Z,96604.70
2019-06-08T00:17:03.622Z,96603.06
2019-06-08T00:19:32.111Z,96626.67
2019-06-08T00:22:00.759Z,96631.21
2019-06-08T00:24:29.224Z,96636.27
2019-06-08T00:26:57.679Z,96651.14
2019-06-08T00:29:26.211Z,96635.64
2019-06-08T00:31:54.725Z,96641.08
2019-06-08T00:34:23.190Z,96632.05
2019-06-08T00:36:51.719Z,96645.00
2019-06-08T00:39:20.919Z,96649.53
2019-06-08T00:41:49.465Z,96653.20
2019-06-08T00:44:19.168Z,96661.78
2019-06-08T00:46:47.717Z,96668.59
2019-06-08T00:49:16.457Z,96673.96
2019-06-08T00:51:45.035Z,96678.51
2019-06-08T00:54:13.541Z,96690.76
2019-06-08T00:56:42.021Z,96695.95
2019-06-08T00:59:10.541Z,96704.45
2019-06-08T01:01:39.010Z,96700.91
2019-06-08T01:04:07.615Z,96703.99
2019-06-08T01:06:36.137Z,96703.17
2019-06-08T01:09:07.461Z,96700.69
2019-06-08T01:11:35.961Z,96698.45
2019-06-08T01:14:04.707Z,96699.36
2019-06-08T01:16:33.269Z,96702.08
2019-06-08T01:19:01.815Z,96703.62
2019-06-08T01:21:30.322Z,96706.69
2019-06-08T01:23:58.840Z,96720.82
2019-06-08T01:26:28.156Z,96728.73
2019-06-08T01:28:56.703Z,96723.89
2019-06-08T01:31:26.589Z,96708.34
2019-06-08T01:33:55.104Z,96716.48
2019-06-08T01:36:24.761Z,96718.84
2019-06-08T01:38:53.299Z,96712.75
2019-06-08T01:41:21.811Z,96713.81
2019-06-08T01:43:50.301Z,96707.91
2019-06-08T01:46:18.824Z,96704.61
2019-06-08T01:48:47.332Z,96702.95
2019-06-08T01:51:15.843Z,96717.36
2019-06-08T01:53:44.337Z,96724.59
2019-06-08T01:56:12.865Z,96739.70
2019-06-08T01:58:41.425Z,96741.59
2019-06-08T02:01:10.032Z,96740.68
2019-06-08T02:03:38.518Z,96732.33
2019-06-08T02:06:07.036Z,96729.85
2019-06-08T02:08:35.619Z,96735.52
2019-06-08T02:11:04.391Z,96740.17
2019-06-08T02:13:33.149Z,96750.44
2019-06-08T02:16:01.737Z,96754.21
2019-06-08T02:18:41.813Z,96749.02
2019-06-08T02:21:00.442Z,96749.52
2019-06-08T02:23:29.013Z,96750.34
2019-06-08T02:25:57.520Z,96754.45
2019-06-08T02:28:27.353Z,96758.48
2019-06-08T02:30:55.928Z,96748.47
2019-06-08T02:33:24.407Z,96751.64
2019-06-08T02:35:53.041Z,96771.83
2019-06-08T02:38:21.654Z,96784.06
2019-06-08T02:40:50.189Z,96787.61
2019-06-08T02:43:18.741Z,96785.26
2019-06-08T02:45:47.330Z,96791.05
2019-06-08T02:48:15.816Z,96788.69
2019-06-08T02:50:53.381Z,96788.69
2019-06-08T02:53:22.578Z,96792.37
2019-06-08T02:55:51.889Z,96801.89
2019-06-08T02:58:20.940Z,96809.93
2019-06-08T03:00:50.414Z,96809.34
2019-06-08T03:03:19.018Z,96815.13
2019-06-08T03:05:49.714Z,96816.28
2019-06-08T03:08:19.627Z,96814.17
2019-06-08T03:10:51.543Z,96813.10
2019-06-08T03:13:21.944Z,96800.86
2019-06-08T03:15:50.439Z,96802.48
2019-06-08T03:18:18.941Z,96808.86
2019-06-08T03:20:47.510Z,96812.75
2019-06-08T03:23:19.081Z,96816.23
2019-06-08T03:25:53.157Z,96826.62
2019-06-08T03:28:17.805Z,96825.57
2019-06-08T03:30:53.768Z,96836.19
2019-06-08T03:33:16.670Z,96848.83
2019-06-08T03:35:55.363Z,96852.70
2019-06-08T03:38:15.404Z,96835.98
2019-06-08T03:40:45.292Z,96838.09
2019-06-08T03:43:13.869Z,96841.41
2019-06-08T03:45:43.030Z,96845.87
2019-06-08T03:48:12.733Z,96848.73
2019-06-08T03:50:42.040Z,96857.81
2019-06-08T03:53:11.434Z,96853.91
2019-06-08T03:55:40.929Z,96855.10
2019-06-08T03:58:10.603Z,96856.73
2019-06-08T04:00:40.496Z,96860.41
2019-06-08T04:03:10.198Z,96852.87
2019-06-08T04:05:40.800Z,96862.63
2019-06-08T04:08:09.005Z,96875.71
2019-06-08T04:10:37.748Z,96884.22
2019-06-08T04:13:06.396Z,96875.97
2019-06-08T04:15:35.035Z,96872.00
2019-06-08T04:18:03.573Z,96876.85
2019-06-08T04:20:32.234Z,96888.04
2019-06-08T04:23:00.799Z,96884.91
2019-06-08T04:25:29.364Z,96887.27
2019-06-08T04:27:57.974Z,96892.24
2019-06-08T04:30:26.530Z,96901.55
2019-06-08T04:32:55.096Z,96905.45
2019-06-08T04:35:25.116Z,96921.24
2019-06-08T05:26:02.359Z,96959.14
2019-06-08T05:28:32.703Z,96956.42
2019-06-08T05:31:07.033Z,96955.11
2019-06-08T05:33:35.529Z,96958.88
2019-06-08T05:36:04.104Z,96973.05
2019-06-08T05:38:32.769Z,96973.50
2019-06-08T05:41:01.329Z,96964.75
2019-06-08T05:43:31.152Z,96981.63
2019-06-08T05:45:59.730Z,96979.75
2019-06-08T05:48:28.333Z,96978.81
2019-06-08T05:51:04.120Z,96983.30
2019-06-08T05:53:41.646Z,96992.03
2019-06-08T05:56:11.109Z,96993.47
2019-06-08T06:01:33.747Z,97011.63
2019-06-08T06:04:02.320Z,97012.23
2019-06-08T06:37:57.118Z,97045.52
2019-06-08T06:40:25.716Z,97044.37
2019-06-08T06:42:54.461Z,97039.17
2019-06-08T06:48:03.366Z,97054.75
2019-06-08T06:56:33.519Z,97051.77
2019-06-08T06:59:07.472Z,97044.57
2019-06-08T07:01:36.097Z,97049.88
2019-06-08T07:04:04.679Z,97050.60
2019-06-08T07:06:33.206Z,97051.20
2019-06-08T07:09:01.897Z,97047.81
2019-06-08T07:11:30.432Z,97050.30
2019-06-08T07:13:59.004Z,97063.98
2019-06-08T07:16:27.567Z,97060.89
2019-06-08T07:18:56.863Z,97061.50
2019-06-08T07:21:40.731Z,97058.44
2019-06-08T07:23:56.241Z,97051.69
2019-06-08T07:26:42.841Z,97047.58
2019-06-08T07:29:11.617Z,97051.84
2019-06-08T07:31:40.131Z,97054.66
2019-06-08T07:34:08.737Z,97056.21
2019-06-08T07:36:37.375Z,97054.44
2019-06-08T07:39:07.774Z,97060.20
2019-06-08T07:41:36.385Z,97051.59
2019-06-08T07:44:05.967Z,97047.45
2019-06-08T07:46:36.094Z,97046.63
2019-06-08T07:49:21.334Z,97038.85
2019-06-08T07:52:02.451Z,97039.33
2019-06-08T07:54:20.299Z,97037.45
2019-06-08T07:59:28.815Z,97042.98
2019-06-08T08:01:58.349Z,97035.09
2019-06-08T08:56:38.374Z,96998.00
2019-06-08T08:59:07.797Z,96993.52
2019-06-08T09:01:39.134Z,96994.27
2019-06-08T09:04:11.529Z,96991.94
2019-06-08T09:06:40.214Z,96998.98
2019-06-08T09:09:10.886Z,96995.64
2019-06-08T09:11:41.379Z,96997.04
2019-06-08T09:14:14.488Z,96991.68
2019-06-08T09:16:44.939Z,96990.53
2019-06-08T09:19:14.675Z,96988.88
2019-06-08T09:27:35.186Z,96986.41
2019-06-08T09:35:37.754Z,96993.23
2019-06-08T09:38:08.550Z,96992.08
2019-06-08T09:40:38.388Z,96992.80
2019-06-08T09:43:12.778Z,96993.16
2019-06-08T09:45:39.070Z,96996.89
2019-06-08T09:48:14.449Z,96996.17
2019-06-08T09:50:42.984Z,96990.95
2019-06-08T09:53:23.762Z,96987.70
2019-06-08T09:55:41.824Z,96986.91
2019-06-08T09:58:11.877Z,96997.12
2019-06-08T10:00:40.643Z,96985.42
2019-06-08T10:03:09.606Z,96988.95
2019-06-08T10:05:38.889Z,96979.33
2019-06-08T10:08:09.466Z,96982.86
2019-06-08T10:10:38.354Z,96985.37
2019-06-08T10:13:09.481Z,96982.14
2019-06-08T10:15:38.737Z,96972.56
2019-06-08T10:18:08.238Z,96968.46
2019-06-08T10:20:38.412Z,96977.46
2019-06-08T10:23:24.384Z,96973.92
2019-06-08T10:25:38.544Z,96979.96
2019-06-08T10:28:13.573Z,96965.44
2019-06-08T10:30:38.438Z,96968.17
2019-06-08T10:33:07.764Z,96972.30
2019-06-08T10:35:38.258Z,96962.10
2019-06-08T10:38:11.228Z,96965.39
2019-06-08T10:40:38.347Z,96956.62
2019-06-08T10:43:09.549Z,96957.71
2019-06-08T10:45:37.248Z,96958.27
2019-06-08T10:48:06.399Z,96953.88
2019-06-08T10:50:35.063Z,96950.03
2019-06-08T10:53:16.298Z,96935.20
2019-06-08T10:58:20.294Z,96935.77
2019-06-08T11:01:02.194Z,96943.17
2019-06-08T11:06:12.862Z,96930.59
2019-06-08T11:08:39.186Z,96934.67
2019-06-08T11:17:00.692Z,96932.38
2019-06-08T11:27:55.193Z,96922.82
2019-06-08T11:30:29.873Z,96917.89
2019-06-08T11:33:12.531Z,96916.53
2019-06-08T11:41:33.713Z,96920.53
2019-06-08T11:44:12.387Z,96919.64
2019-06-08T11:46:42.705Z,96909.28
2019-06-08T12:11:48.059Z,96900.67
2019-06-08T12:14:25.976Z,96898.73
2019-06-08T12:36:52.423Z,96878.05
2019-06-08T12:40:01.361Z,96876.13
2019-06-08T12:51:29.706Z,96862.98
2019-06-08T12:54:00.385Z,96854.10
2019-06-08T12:56:28.869Z,96846.92
2019-06-08T12:58:58.027Z,96858.18
2019-06-08T13:01:28.168Z,96858.18
2019-06-08T13:03:58.187Z,96855.75
2019-06-08T13:06:28.261Z,96858.94
2019-06-08T13:08:57.792Z,96853.04
2019-06-08T13:11:28.239Z,96851.11
2019-06-08T13:13:56.912Z,96846.47
2019-06-08T13:16:28.237Z,96845.08
2019-06-08T13:18:55.693Z,96848.65
2019-06-08T13:21:34.143Z,96857.91
2019-06-08T13:23:55.258Z,96846.08
2019-06-08T13:26:27.819Z,96851.58
2019-06-08T13:28:54.001Z,96841.86
2019-06-08T13:31:24.633Z,96843.50
2019-06-08T13:33:52.872Z,96842.14
2019-06-08T13:36:26.065Z,96845.47
2019-06-08T13:38:51.700Z,96843.25
2019-06-08T13:41:24.810Z,96838.36
2019-06-08T13:43:50.530Z,96838.69
2019-06-08T13:46:22.354Z,96838.57
2019-06-08T13:48:49.359Z,96840.52
2019-06-08T13:51:19.828Z,96833.36
2019-06-08T13:53:50.046Z,96839.45
2019-06-08T13:56:20.418Z,96832.30
2019-06-08T13:58:48.620Z,96832.66
2019-06-08T14:01:17.621Z,96832.66
2019-06-08T14:04:12.314Z,96828.64
2019-06-08T14:06:40.786Z,96823.89
2019-06-08T14:09:21.455Z,96818.53
2019-06-08T14:11:49.320Z,96813.41
2019-06-08T14:14:19.969Z,96813.45
2019-06-08T14:16:50.462Z,96799.39
2019-06-08T14:19:19.977Z,96798.09
2019-06-08T14:21:48.577Z,96803.20
2019-06-08T14:24:25.741Z,96801.09
2019-06-08T14:26:49.394Z,96807.02
2019-06-08T14:29:20.160Z,96799.57
2019-06-08T14:31:48.187Z,96791.30
2019-06-08T14:34:18.679Z,96788.28
2019-06-08T14:36:48.867Z,96783.88
2019-06-08T14:39:18.819Z,96780.72
2019-06-08T14:41:49.404Z,96778.97
2019-06-08T14:44:19.441Z,96782.02
2019-06-08T14:46:48.121Z,96781.84
2019-06-08T14:49:18.718Z,96776.92
2019-06-08T14:51:50.634Z,96783.88
2019-06-08T14:54:23.527Z,96767.33
2019-06-08T14:56:50.334Z,96779.81
2019-06-08T14:59:21.441Z,96776.23
2019-06-08T15:01:49.814Z,96776.46
2019-06-08T15:04:19.311Z,96781.44
2019-06-08T15:06:49.094Z,96780.64
2019-06-08T15:09:17.903Z,96767.97
2019-06-08T15:11:48.067Z,96770.41
2019-06-08T15:14:16.656Z,96762.81
2019-06-08T15:16:45.244Z,96757.62
2019-06-08T15:19:13.742Z,96766.33
2019-06-08T15:21:42.249Z,96749.98
2019-06-08T15:24:10.744Z,96772.44
2019-06-08T15:26:44.842Z,96764.16
2019-06-08T15:29:09.596Z,96761.00
2019-06-08T15:31:39.032Z,96761.73
2019-06-08T15:34:10.431Z,96752.72
2019-06-08T15:36:38.268Z,96749.83
2019-06-08T15:39:07.974Z,96747.27
2019-06-08T15:41:38.208Z,96751.81
2019-06-08T15:44:06.739Z,96743.84
2019-06-08T15:46:35.259Z,96746.50
2019-06-08T15:49:03.785Z,96743.82
2019-06-08T15:51:37.256Z,96747.31
2019-06-08T15:54:02.569Z,96749.97
2019-06-08T15:56:41.821Z,96741.39
2019-06-08T15:59:01.295Z,96735.55
2019-06-08T16:01:29.820Z,96738.56
2019-06-08T16:03:58.504Z,96750.48
2019-06-08T16:06:27.790Z,96749.31
2019-06-08T16:08:56.318Z,96751.80
2019-06-08T16:11:26.031Z,96757.50
2019-06-08T16:13:54.494Z,96756.40
2019-06-08T16:16:23.099Z,96757.38
2019-06-08T16:18:51.609Z,96750.95
2019-06-08T16:21:20.133Z,96748.63
2019-06-08T16:23:48.629Z,96746.75
2019-06-08T16:26:17.519Z,96751.75
2019-06-08T16:28:46.030Z,96740.75
2019-06-08T16:31:14.598Z,96752.25
2019-06-08T16:33:44.206Z,96753.45
2019-06-08T16:36:12.889Z,96744.45
2019-06-08T16:38:41.407Z,96745.77
2019-06-08T16:41:09.990Z,96749.58
2019-06-08T16:43:39.338Z,96752.05
2019-06-08T16:46:07.895Z,96757.30
2019-06-08T16:48:36.457Z,96759.31
2019-06-08T16:51:05.033Z,96770.91
2019-06-08T16:53:34.137Z,96755.83
2019-06-08T16:56:02.799Z,96748.69
2019-06-08T16:58:32.116Z,96761.91
2019-06-08T17:01:01.092Z,96740.61
2019-06-08T17:03:30.709Z,96756.98
2019-06-08T17:05:59.449Z,96740.61
2019-06-08T17:08:29.409Z,96755.70
2019-06-08T17:10:57.971Z,96760.92
2019-06-08T17:13:29.785Z,96749.27
2019-06-08T17:15:56.717Z,96749.02
2019-06-08T17:18:25.203Z,96757.64
2019-06-08T17:20:53.712Z,96761.33
2019-06-08T17:23:22.225Z,96752.33
2019-06-08T17:25:52.230Z,96762.55
2019-06-08T17:28:22.286Z,96755.94
2019-06-08T17:30:50.796Z,96753.97
2019-06-08T17:33:19.393Z,96757.27
2019-06-08T17:35:47.915Z,96752.88
2019-06-08T17:38:16.401Z,96758.69
2019-06-08T17:40:44.916Z,96760.02
2019-06-08T17:43:13.579Z,96762.27
2019-06-08T17:45:42.966Z,96761.77
2019-06-08T17:48:11.498Z,96761.77
2019-06-08T17:50:40.793Z,96768.16
2019-06-08T17:53:09.664Z,96761.30
2019-06-08T17:55:39.475Z,96763.23
2019-06-08T17:58:08.083Z,96763.52
2019-06-08T18:00:37.443Z,96764.79
2019-06-08T18:03:08.290Z,96771.02
2019-06-08T18:05:39.365Z,96767.08
2019-06-08T18:08:07.841Z,96763.53
2019-06-08T18:10:38.522Z,96754.76
2019-06-08T18:13:07.377Z,96757.82
2019-06-08T18:15:38.638Z,96764.18
2019-06-08T18:18:08.164Z,96759.05
2019-06-08T18:20:39.183Z,96760.48
2019-06-08T18:23:08.189Z,96766.53
2019-06-08T18:25:38.816Z,96766.53
2019-06-08T18:28:13.169Z,96768.23
2019-06-08T18:30:40.426Z,96784.79
2019-06-08T18:33:07.734Z,96773.28
2019-06-08T18:35:39.393Z,96776.89
2019-06-08T18:38:07.308Z,96774.48
2019-06-08T18:40:38.805Z,96774.80
2019-06-08T18:43:07.592Z,96774.53
2019-06-08T18:45:39.062Z,96775.11
2019-06-08T18:48:07.161Z,96777.58
2019-06-08T18:50:38.052Z,96780.09
2019-06-08T18:53:07.081Z,96780.39
2019-06-08T18:55:38.747Z,96783.98
2019-06-08T18:58:20.064Z,96781.55
2019-06-08T19:00:41.565Z,96780.72
2019-06-08T19:03:09.593Z,96774.17
2019-06-08T19:05:41.865Z,96791.18
2019-06-08T19:08:10.036Z,96785.19
2019-06-08T19:10:40.752Z,96787.36
2019-06-08T19:13:09.858Z,96789.84
2019-06-08T19:15:42.322Z,96798.87
2019-06-08T19:18:09.875Z,96795.32
2019-06-08T19:20:42.865Z,96796.40
2019-06-08T19:23:09.248Z,96803.27
2019-06-08T19:25:42.077Z,96794.48
2019-06-08T19:28:08.397Z,96802.41
2019-06-08T19:30:39.414Z,96803.48
2019-06-08T19:33:07.442Z,96817.69
2019-06-08T19:35:38.815Z,96809.75
2019-06-08T19:38:07.425Z,96809.42
2019-06-08T19:40:37.898Z,96817.06
2019-06-08T19:43:07.561Z,96816.80
2019-06-08T19:45:38.662Z,96821.41
2019-06-08T19:48:08.264Z,96826.61
2019-06-08T19:50:38.663Z,96824.44
2019-06-08T19:53:07.413Z,96833.11
2019-06-08T19:55:36.078Z,96834.70
2019-06-08T19:58:04.715Z,96824.78
2019-06-08T20:00:33.241Z,96835.15
2019-06-08T20:03:01.734Z,96839.80
2019-06-08T20:05:30.301Z,96840.93
2019-06-08T20:07:58.825Z,96844.69
2019-06-08T20:10:27.931Z,96838.95
2019-06-08T20:12:57.794Z,96847.09
2019-06-08T20:15:26.481Z,96853.13
2019-06-08T20:17:57.271Z,96848.67
2019-06-08T20:20:27.702Z,96843.93
2019-06-08T20:22:55.402Z,96836.33
2019-06-08T20:25:23.952Z,96842.39
2019-06-08T20:27:53.614Z,96848.08
2019-06-08T20:30:22.267Z,96836.54
2019-06-08T20:32:52.560Z,96846.06
2019-06-08T20:35:21.009Z,96852.02
2019-06-08T20:37:49.985Z,96851.45
2019-06-08T20:40:18.544Z,96857.79
2019-06-08T20:42:49.944Z,96859.44
2019-06-08T20:45:17.365Z,96862.70
2019-06-08T20:47:49.468Z,96858.89
2019-06-08T20:50:17.628Z,96853.33
2019-06-08T20:52:47.213Z,96847.52
2019-06-08T20:55:17.603Z,96859.23
2019-06-08T20:57:49.065Z,96866.85
2019-06-08T21:00:16.521Z,96860.34
2019-06-08T21:02:46.392Z,96861.39
2019-06-08T21:05:18.082Z,96865.20
2019-06-08T21:07:48.846Z,96868.44
2019-06-08T21:10:17.470Z,96870.92
2019-06-08T21:12:49.516Z,96877.52
2019-06-08T21:15:17.793Z,96876.02
2019-06-08T21:17:49.125Z,96872.37
2019-06-08T21:20:17.762Z,96874.23
2019-06-08T21:22:50.038Z,96879.69
2019-06-08T21:25:17.616Z,96876.20
2019-06-08T21:27:48.509Z,96875.63
2019-06-08T21:30:21.562Z,96879.58
2019-06-08T21:32:50.306Z,96877.31
2019-06-08T21:35:18.323Z,96881.65
2019-06-08T21:37:49.786Z,96887.10
2019-06-08T21:40:17.701Z,96881.58
2019-06-08T21:42:48.966Z,96884.51
2019-06-08T21:45:18.971Z,96892.28
2019-06-08T21:47:48.581Z,96886.08
2019-06-08T21:50:18.606Z,96891.20
2019-06-08T21:52:48.944Z,96892.28
2019-06-08T21:55:17.816Z,96891.20
2019-06-08T21:57:49.585Z,96890.95
2019-06-08T22:00:35.864Z,96894.76
2019-06-08T22:02:48.073Z,96891.08
2019-06-08T22:05:16.774Z,96903.59
2019-06-08T22:07:47.157Z,96895.12
2019-06-08T22:10:17.809Z,96893.80
2019-06-08T22:12:48.395Z,96898.63
2019-06-08T22:15:18.289Z,96897.03
2019-06-08T22:17:47.647Z,96895.52
2019-06-08T22:20:18.446Z,96893.77
2019-06-08T22:22:47.321Z,96896.69
2019-06-08T22:25:17.511Z,96905.50
2019-06-08T22:27:46.218Z,96901.45
2019-06-08T22:30:34.755Z,96897.72
2019-06-08T22:32:47.375Z,96897.72
2019-06-08T22:35:15.797Z,96901.40
2019-06-08T22:37:44.322Z,96900.61
2019-06-08T22:40:13.066Z,96907.37
2019-06-08T22:42:41.534Z,96903.75
2019-06-08T22:45:11.195Z,96899.44
2019-06-08T22:47:39.746Z,96900.33
2019-06-08T22:50:08.460Z,96889.46
2019-06-08T22:52:37.674Z,96908.18
2019-06-08T22:55:10.518Z,96902.09
2019-06-08T22:57:37.883Z,96904.22
2019-06-08T23:00:16.587Z,96908.01
2019-06-08T23:02:38.783Z,96906.42
2019-06-08T23:05:09.060Z,96895.55
2019-06-08T23:07:37.820Z,96892.03
2019-06-08T23:10:08.886Z,96896.64
2019-06-08T23:12:38.253Z,96897.20
2019-06-08T23:15:08.317Z,96893.98
2019-06-08T23:17:38.575Z,96894.81
2019-06-08T23:20:08.594Z,96895.71
2019-06-08T23:22:38.493Z,96893.57
2019-06-08T23:25:09.341Z,96883.09
2019-06-08T23:27:38.189Z,96885.73
2019-06-08T23:30:10.139Z,96883.50
2019-06-08T23:32:38.996Z,96885.16
2019-06-08T23:35:09.420Z,96892.24
2019-06-08T23:37:38.141Z,96877.30
2019-06-08T23:40:07.661Z,96879.30
2019-06-08T23:42:38.270Z,96880.19
2019-06-08T23:45:10.342Z,96890.41
2019-06-08T23:47:38.493Z,96885.80
2019-06-08T23:50:10.946Z,96883.55
2019-06-08T23:52:38.991Z,96886.63
2019-06-08T23:55:11.676Z,96890.00
2019-06-08T23:57:39.650Z,96883.07
